« Back
NWS Peachtree City, Ga » Text Product » MCN Terminal Aerodrome Forecast


Printer-friendly Version
Current Version              Previous Versions:   1  2  3  4  5  6  7  8  9  

Terminal Aerodrome Forecast

530
FTUS42 KFFC 251700
TAFMCN
TAF
KMCN 251733Z 2518/2618 33005KT P6SM SKC
     FM260500 31004KT P6SM FEW025
     FM261300 33005KT P6SM FEW250=

USA.gov is the U.S. government's official web portal to all federal, state and local government web resources and services.